createdAt,value
2023-03-28T00:00:45.509Z,97756.94
2023-03-28T00:03:48.297Z,97766.97
2023-03-28T00:06:52.268Z,97757.47
2023-03-28T00:09:55.051Z,97768.97
2023-03-28T00:12:57.646Z,97769.97
2023-03-28T00:16:06.062Z,97766.81
2023-03-28T00:19:11.961Z,97766.66
2023-03-28T00:22:14.852Z,97766.81
2023-03-28T00:25:19.812Z,97772.16
2023-03-28T00:28:22.499Z,97778.91
2023-03-28T00:31:28.504Z,97776.88
2023-03-28T00:34:31.578Z,97773.97
2023-03-28T00:37:34.441Z,97773.16
2023-03-28T00:40:38.917Z,97779.66
2023-03-28T00:43:52.604Z,97781.00
2023-03-28T00:46:56.358Z,97778.41
2023-03-28T00:50:05.805Z,97782.31
2023-03-28T00:53:11.570Z,97789.88
2023-03-28T00:56:17.866Z,97791.47
2023-03-28T00:59:23.668Z,97793.94
2023-03-28T01:02:26.664Z,97789.09
2023-03-28T01:05:32.465Z,97795.03
2023-03-28T01:08:38.857Z,97794.25
2023-03-28T01:11:45.018Z,97797.44
2023-03-28T01:14:49.676Z,97793.34
2023-03-28T01:17:53.963Z,97795.91
2023-03-28T01:21:34.117Z,97806.22
2023-03-28T01:24:58.791Z,97804.69
2023-03-28T01:28:25.224Z,97797.78
2023-03-28T01:31:44.065Z,97802.63
2023-03-28T01:35:37.970Z,97798.56
2023-03-28T01:38:54.592Z,97799.53
2023-03-28T01:42:19.270Z,97809.66
2023-03-28T01:45:50.835Z,97804.38
2023-03-28T01:49:12.381Z,97805.88
2023-03-28T01:52:22.006Z,97812.00
2023-03-28T01:55:42.066Z,97810.94
2023-03-28T01:58:58.752Z,97820.03
2023-03-28T02:02:34.983Z,97813.34
2023-03-28T02:05:46.579Z,97823.66
2023-03-28T02:08:53.291Z,97822.16
2023-03-28T02:12:17.427Z,97826.63
2023-03-28T02:15:33.287Z,97842.97
2023-03-28T02:19:02.147Z,97829.47
2023-03-28T02:22:59.756Z,97828.63
2023-03-28T02:26:24.253Z,97829.03
2023-03-28T02:30:08.060Z,97826.91
2023-03-28T02:33:38.115Z,97831.50
2023-03-28T02:36:50.157Z,97834.09
2023-03-28T02:39:58.322Z,97843.94
2023-03-28T02:43:37.250Z,97838.13
2023-03-28T02:47:03.488Z,97844.09
2023-03-28T02:50:26.092Z,97841.63
2023-03-28T02:54:03.064Z,97842.22
2023-03-28T02:57:13.161Z,97844.19
2023-03-28T03:00:21.906Z,97841.97
2023-03-28T03:03:26.191Z,97855.34
2023-03-28T03:06:29.204Z,97850.19
2023-03-28T03:09:32.727Z,97856.63
2023-03-28T03:12:36.712Z,97849.16
2023-03-28T03:15:41.626Z,97855.84
2023-03-28T03:19:13.754Z,97857.88
2023-03-28T03:22:20.572Z,97854.16
2023-03-28T03:25:27.273Z,97856.63
2023-03-28T03:28:42.367Z,97864.63
2023-03-28T03:31:45.411Z,97866.72
2023-03-28T03:35:08.308Z,97872.22
2023-03-28T03:38:11.034Z,97877.84
2023-03-28T03:41:14.394Z,97870.13
2023-03-28T03:44:17.181Z,97869.78
2023-03-28T03:47:20.328Z,97865.63
2023-03-28T03:50:25.536Z,97871.28
2023-03-28T03:53:28.356Z,97875.09
2023-03-28T03:56:38.848Z,97883.34
2023-03-28T03:59:41.907Z,97882.25
2023-03-28T04:02:49.364Z,97882.25
2023-03-28T04:05:59.572Z,97883.56
2023-03-28T04:09:02.483Z,97875.66
2023-03-28T04:12:25.029Z,97878.22
2023-03-28T04:15:31.027Z,97874.97
2023-03-28T04:18:40.562Z,97878.63
2023-03-28T04:21:44.154Z,97876.94
2023-03-28T04:24:50.086Z,97878.63
2023-03-28T04:28:05.678Z,97875.84
2023-03-28T04:31:16.346Z,97874.69
2023-03-28T04:34:39.056Z,97881.78
2023-03-28T04:37:44.829Z,97872.94
2023-03-28T04:40:47.479Z,97880.78
2023-03-28T04:44:12.792Z,97877.38
2023-03-28T04:47:21.718Z,97889.78
2023-03-28T04:50:24.494Z,97883.84
2023-03-28T04:53:27.396Z,97897.28
2023-03-28T04:56:48.606Z,97901.97
2023-03-28T04:59:57.119Z,97897.22
2023-03-28T05:03:22.941Z,97902.69
2023-03-28T05:06:37.548Z,97905.66
2023-03-28T05:09:40.847Z,97895.72
2023-03-28T05:12:44.210Z,97914.34
2023-03-28T05:15:47.842Z,97914.50
2023-03-28T05:19:21.212Z,97913.94
2023-03-28T05:22:33.830Z,97916.53
2023-03-28T05:25:41.124Z,97921.13
2023-03-28T05:28:44.348Z,97920.41
2023-03-28T05:31:47.365Z,97930.41
2023-03-28T05:34:58.699Z,97931.53
2023-03-28T05:38:05.472Z,97922.59
2023-03-28T05:41:08.434Z,97936.25
2023-03-28T05:44:11.339Z,97931.19
2023-03-28T05:47:40.601Z,97939.09
2023-03-28T05:50:45.335Z,97937.16
2023-03-28T05:53:48.260Z,97928.69
2023-03-28T05:56:51.050Z,97929.00
2023-03-28T05:59:54.272Z,97923.28
2023-03-28T06:02:58.285Z,97922.34
2023-03-28T06:06:08.924Z,97909.97
2023-03-28T06:09:12.589Z,97906.44
2023-03-28T06:12:25.927Z,97916.59
2023-03-28T06:15:29.145Z,97916.97
2023-03-28T06:18:31.997Z,97916.25
2023-03-28T06:21:35.558Z,97914.94
2023-03-28T06:24:41.779Z,97914.56
2023-03-28T06:27:44.438Z,97911.25
2023-03-28T06:30:50.941Z,97927.97
2023-03-28T06:33:54.224Z,97905.44
2023-03-28T06:37:02.124Z,97908.50
2023-03-28T06:40:20.955Z,97919.91
2023-03-28T06:43:23.903Z,97920.66
2023-03-28T06:46:42.513Z,97925.44
2023-03-28T06:49:51.505Z,97940.41
2023-03-28T06:53:12.903Z,97955.66
2023-03-28T06:56:18.490Z,97954.38
2023-03-28T06:59:21.822Z,97962.66
2023-03-28T07:02:30.232Z,97974.91
2023-03-28T07:05:41.364Z,97986.91
2023-03-28T07:08:49.541Z,97995.56
2023-03-28T07:12:02.417Z,97999.59
2023-03-28T07:15:06.421Z,98001.22
2023-03-28T07:18:13.215Z,98010.63
2023-03-28T07:21:21.703Z,98023.84
2023-03-28T07:24:24.535Z,98017.97
2023-03-28T07:27:38.918Z,98014.88
2023-03-28T07:30:42.305Z,98026.50
2023-03-28T07:33:44.941Z,98014.47
2023-03-28T07:36:48.115Z,98011.47
2023-03-28T07:39:58.682Z,98027.06
2023-03-28T07:43:02.802Z,98023.44
2023-03-28T07:46:08.440Z,98037.53
2023-03-28T07:49:11.965Z,98029.13
2023-03-28T07:52:15.467Z,98048.31
2023-03-28T07:55:21.885Z,98058.84
2023-03-28T07:58:26.917Z,98045.09
2023-03-28T08:01:33.785Z,98058.31
2023-03-28T08:04:42.000Z,98055.16
2023-03-28T08:07:52.299Z,98052.91
2023-03-28T08:10:55.144Z,98052.47
2023-03-28T08:14:01.494Z,98057.25
2023-03-28T08:17:06.079Z,98078.81
2023-03-28T08:20:13.217Z,98058.84
2023-03-28T08:23:31.480Z,98064.13
2023-03-28T08:26:44.052Z,98065.06
2023-03-28T08:29:48.098Z,98053.22
2023-03-28T08:32:52.039Z,98058.44
2023-03-28T08:35:55.061Z,98067.78
2023-03-28T08:39:01.253Z,98079.53
2023-03-28T08:42:19.808Z,98082.03
2023-03-28T08:45:38.417Z,98093.47
2023-03-28T08:48:44.924Z,98075.53
2023-03-28T08:51:51.867Z,98085.72
2023-03-28T08:55:06.671Z,98077.56
2023-03-28T08:58:23.806Z,98098.91
2023-03-28T09:01:29.691Z,98097.84
2023-03-28T09:04:35.567Z,98102.16
2023-03-28T09:07:55.621Z,98089.63
2023-03-28T09:11:24.812Z,98093.66
2023-03-28T09:15:01.731Z,98076.03
2023-03-28T09:18:34.618Z,98101.53
2023-03-28T09:22:14.837Z,98112.75
2023-03-28T09:25:40.216Z,98105.22
2023-03-28T09:28:46.486Z,98092.66
2023-03-28T09:31:51.996Z,98118.38
2023-03-28T09:34:56.724Z,98117.16
2023-03-28T09:38:04.988Z,98098.38
2023-03-28T09:41:15.222Z,98111.34
2023-03-28T09:45:16.755Z,98114.97
2023-03-28T09:48:28.263Z,98105.69
2023-03-28T09:51:31.803Z,98114.78
2023-03-28T09:54:37.814Z,98117.97
2023-03-28T09:58:11.571Z,98118.56
2023-03-28T10:01:34.487Z,98128.78
2023-03-28T10:05:05.521Z,98137.88
2023-03-28T10:08:23.007Z,98155.56
2023-03-28T10:11:58.072Z,98137.81
2023-03-28T10:15:05.075Z,98141.97
2023-03-28T10:18:45.691Z,98140.59
2023-03-28T10:22:17.463Z,98148.75
2023-03-28T10:25:37.835Z,98147.75
2023-03-28T10:28:43.635Z,98150.34
2023-03-28T10:31:50.021Z,98144.66
2023-03-28T10:35:26.880Z,98133.56
2023-03-28T10:38:49.977Z,98139.66
2023-03-28T10:42:00.471Z,98143.16
2023-03-28T10:45:20.475Z,98144.88
2023-03-28T10:48:28.116Z,98157.88
2023-03-28T10:51:38.314Z,98157.03
2023-03-28T10:55:10.225Z,98149.38
2023-03-28T10:58:35.681Z,98138.59
2023-03-28T11:01:49.966Z,98142.09
2023-03-28T11:04:58.583Z,98160.31
2023-03-28T11:08:26.733Z,98160.97
2023-03-28T11:12:06.387Z,98168.69
2023-03-28T11:15:31.967Z,98165.97
2023-03-28T11:18:56.844Z,98164.59
2023-03-28T11:22:21.735Z,98179.31
2023-03-28T11:25:46.902Z,98162.25
2023-03-28T11:29:59.961Z,98166.41
2023-03-28T11:33:31.120Z,98150.81
2023-03-28T11:36:46.244Z,98151.41
2023-03-28T11:40:04.054Z,98169.72
2023-03-28T11:43:33.996Z,98163.78
2023-03-28T11:46:56.039Z,98147.19
2023-03-28T11:50:05.363Z,98143.53
2023-03-28T11:53:43.350Z,98179.56
2023-03-28T11:57:23.808Z,98155.78
2023-03-28T12:01:06.601Z,98176.41
2023-03-28T12:04:22.061Z,98179.28
2023-03-28T12:08:07.572Z,98172.09
2023-03-28T12:11:18.580Z,98173.34
2023-03-28T12:14:43.237Z,98177.31
2023-03-28T12:18:23.416Z,98184.59
2023-03-28T12:21:35.586Z,98178.06
2023-03-28T12:24:57.074Z,98179.28
2023-03-28T12:28:28.913Z,98188.84
2023-03-28T12:31:48.851Z,98233.91
2023-03-28T12:35:05.746Z,98252.13
2023-03-28T12:38:47.857Z,98262.72
2023-03-28T12:42:13.513Z,98268.03
2023-03-28T12:45:41.637Z,98262.91
2023-03-28T12:49:08.686Z,98262.16
2023-03-28T12:52:44.329Z,98267.59
2023-03-28T12:55:57.742Z,98260.72
2023-03-28T12:59:36.473Z,98271.84
2023-03-28T13:02:44.697Z,98268.59
2023-03-28T13:06:09.823Z,98272.91
2023-03-28T13:09:31.573Z,98256.97
2023-03-28T13:12:49.088Z,98250.66
2023-03-28T13:16:00.557Z,98245.34
2023-03-28T13:19:11.756Z,98262.19
2023-03-28T13:23:01.848Z,98271.31
2023-03-28T13:26:06.530Z,98286.44
2023-03-28T13:29:09.481Z,98277.53
2023-03-28T13:32:23.704Z,98291.34
2023-03-28T13:35:49.368Z,98296.47
2023-03-28T13:39:33.371Z,98295.31
2023-03-28T13:42:36.281Z,98313.53
2023-03-28T13:45:39.285Z,98305.03
2023-03-28T13:48:54.695Z,98294.19
2023-03-28T13:52:19.673Z,98306.25
2023-03-28T13:55:24.525Z,98300.91
2023-03-28T13:58:27.430Z,98302.56
2023-03-28T14:01:45.281Z,98316.66
2023-03-28T14:04:57.590Z,98294.44
2023-03-28T14:08:21.687Z,98295.56
2023-03-28T14:11:34.799Z,98300.44
2023-03-28T14:14:42.568Z,98291.50
2023-03-28T14:17:45.290Z,98299.06
2023-03-28T14:20:48.100Z,98293.91
2023-03-28T14:23:59.121Z,98305.03
2023-03-28T14:27:16.088Z,98313.56
2023-03-28T14:30:29.923Z,98309.41
2023-03-28T14:33:37.822Z,98350.72
2023-03-28T14:37:02.447Z,98359.34
2023-03-28T14:40:31.791Z,98382.78
2023-03-28T14:43:34.824Z,98367.22
2023-03-28T14:46:37.818Z,98374.34
2023-03-28T14:49:41.178Z,98374.72
2023-03-28T14:52:44.995Z,98361.50
2023-03-28T14:55:52.161Z,98371.28
2023-03-28T14:59:00.061Z,98354.91
2023-03-28T15:02:04.978Z,98351.59
2023-03-28T15:05:15.040Z,98361.06
2023-03-28T15:08:34.829Z,98358.56
2023-03-28T15:11:39.407Z,98369.09
2023-03-28T15:14:44.315Z,98367.03
2023-03-28T15:17:47.642Z,98361.59
2023-03-28T15:20:52.563Z,98326.31
2023-03-28T15:24:00.900Z,98374.66
2023-03-28T15:27:06.027Z,98380.66
2023-03-28T15:30:17.149Z,98375.69
2023-03-28T15:33:22.624Z,98393.91
2023-03-28T15:36:30.827Z,98411.88
2023-03-28T15:39:35.138Z,98395.31
2023-03-28T15:42:38.201Z,98384.94
2023-03-28T15:45:44.970Z,98384.97
2023-03-28T15:48:48.347Z,98387.56
2023-03-28T15:51:58.450Z,98381.25
2023-03-28T15:55:02.713Z,98374.59
2023-03-28T15:58:06.394Z,98383.31
2023-03-28T16:01:27.468Z,98393.34
2023-03-28T16:04:30.362Z,98392.22
2023-03-28T16:07:37.474Z,98395.16
2023-03-28T16:10:40.377Z,98397.88
2023-03-28T16:14:03.675Z,98400.63
2023-03-28T16:17:33.659Z,98408.75
2023-03-28T16:20:59.398Z,98425.69
2023-03-28T16:24:02.395Z,98435.44
2023-03-28T16:27:05.403Z,98429.88
2023-03-28T16:30:18.317Z,98433.41
2023-03-28T16:33:22.116Z,98450.66
2023-03-28T16:36:27.772Z,98441.31
2023-03-28T16:39:30.669Z,98440.78
2023-03-28T16:42:33.626Z,98454.81
2023-03-28T16:45:36.644Z,98449.06
2023-03-28T16:48:39.828Z,98448.66
2023-03-28T16:51:42.937Z,98449.81
2023-03-28T16:54:48.884Z,98453.75
2023-03-28T16:57:52.192Z,98484.41
2023-03-28T17:01:08.857Z,98475.47
2023-03-28T17:04:12.161Z,98486.59
2023-03-28T17:07:15.285Z,98485.09
2023-03-28T17:10:18.210Z,98493.09
2023-03-28T17:13:21.683Z,98500.78
2023-03-28T17:16:24.694Z,98501.44
2023-03-28T17:19:29.400Z,98511.78
2023-03-28T17:22:32.202Z,98508.50
2023-03-28T17:25:41.712Z,98521.34
2023-03-28T17:28:52.591Z,98520.56
2023-03-28T17:31:55.820Z,98521.34
2023-03-28T17:34:58.936Z,98528.91
2023-03-28T17:38:01.754Z,98534.53
2023-03-28T17:41:04.759Z,98532.00
2023-03-28T17:44:09.309Z,98534.06
2023-03-28T17:47:12.850Z,98536.72
2023-03-28T17:50:16.105Z,98539.53
2023-03-28T17:53:19.112Z,98531.78
2023-03-28T17:56:22.558Z,98541.06
2023-03-28T17:59:25.494Z,98551.41
2023-03-28T18:02:29.025Z,98555.84
2023-03-28T18:05:50.295Z,98558.38
2023-03-28T18:08:55.894Z,98559.78
2023-03-28T18:11:58.728Z,98571.47
2023-03-28T18:15:01.559Z,98571.91
2023-03-28T18:18:05.471Z,98580.28
2023-03-28T18:21:09.107Z,98588.19
2023-03-28T18:24:12.860Z,98582.56
2023-03-28T18:27:15.920Z,98596.09
2023-03-28T18:30:21.664Z,98585.91
2023-03-28T18:33:24.685Z,98597.72
2023-03-28T18:36:27.952Z,98606.00
2023-03-28T18:39:33.315Z,98605.06
2023-03-28T18:42:36.941Z,98615.03
2023-03-28T18:45:40.974Z,98604.16
2023-03-28T18:48:46.024Z,98604.31
2023-03-28T18:51:49.337Z,98616.81
2023-03-28T18:54:54.959Z,98613.03
2023-03-28T18:57:58.448Z,98620.31
2023-03-28T19:01:03.759Z,98613.66
2023-03-28T19:04:06.993Z,98619.38
2023-03-28T19:07:10.426Z,98623.81
2023-03-28T19:10:14.619Z,98627.13
2023-03-28T19:13:17.510Z,98621.97
2023-03-28T19:16:20.406Z,98624.91
2023-03-28T19:19:25.872Z,98628.25
2023-03-28T19:22:28.620Z,98629.41
2023-03-28T19:25:32.196Z,98635.81
2023-03-28T19:28:35.623Z,98639.41
2023-03-28T19:31:38.558Z,98639.63
2023-03-28T19:34:41.769Z,98645.81
2023-03-28T19:37:44.523Z,98647.72
2023-03-28T19:40:47.681Z,98651.72
2023-03-28T19:43:51.681Z,98642.13
2023-03-28T19:46:54.525Z,98652.41
2023-03-28T19:49:57.562Z,98656.38
2023-03-28T19:53:00.563Z,98660.44
2023-03-28T19:56:03.812Z,98651.94
2023-03-28T19:59:06.838Z,98663.22
2023-03-28T20:02:11.206Z,98651.94
2023-03-28T20:05:14.063Z,98654.97
2023-03-28T20:08:19.260Z,98659.13
2023-03-28T20:11:22.443Z,98658.19
2023-03-28T20:14:25.268Z,98661.06
2023-03-28T20:17:28.170Z,98661.25
2023-03-28T20:20:31.670Z,98657.75
2023-03-28T20:23:34.557Z,98660.56
2023-03-28T20:26:37.296Z,98663.47
2023-03-28T20:29:40.034Z,98657.47
2023-03-28T20:32:44.949Z,98661.09
2023-03-28T20:35:58.912Z,98663.84
2023-03-28T20:39:02.851Z,98657.16
2023-03-28T20:42:05.889Z,98652.91
2023-03-28T20:45:14.289Z,98652.09
2023-03-28T20:48:17.181Z,98663.25
2023-03-28T20:51:23.309Z,98663.41
2023-03-28T20:54:28.121Z,98666.66
2023-03-28T20:57:36.184Z,98670.41
2023-03-28T21:00:40.222Z,98664.41
2023-03-28T21:03:50.078Z,98674.16
2023-03-28T21:06:55.538Z,98672.44
2023-03-28T21:10:01.506Z,98672.59
2023-03-28T21:13:04.332Z,98675.16
2023-03-28T21:16:07.798Z,98667.13
2023-03-28T21:19:10.622Z,98683.59
2023-03-28T21:22:13.303Z,98688.59
2023-03-28T21:25:18.943Z,98688.59
2023-03-28T21:28:21.840Z,98681.63
2023-03-28T21:31:27.057Z,98681.56
2023-03-28T21:34:35.923Z,98683.03
2023-03-28T21:37:38.835Z,98680.56
2023-03-28T21:40:41.506Z,98681.88
2023-03-28T21:43:44.338Z,98682.41
2023-03-28T21:46:47.185Z,98677.50
2023-03-28T21:49:49.932Z,98684.31
2023-03-28T21:52:52.824Z,98680.19
2023-03-28T21:55:56.531Z,98674.38
2023-03-28T21:58:59.211Z,98663.69
2023-03-28T22:02:02.107Z,98661.91
2023-03-28T22:05:07.238Z,98669.50
2023-03-28T22:08:15.794Z,98671.56
2023-03-28T22:11:21.725Z,98671.97
2023-03-28T22:14:24.401Z,98675.28
2023-03-28T22:17:27.395Z,98669.22
2023-03-28T22:20:30.185Z,98664.84
2023-03-28T22:23:32.819Z,98672.78
2023-03-28T22:26:36.280Z,98667.06
2023-03-28T22:29:38.903Z,98670.97
2023-03-28T22:32:41.954Z,98675.66
2023-03-28T22:35:47.303Z,98677.34
2023-03-28T22:38:49.981Z,98677.97
2023-03-28T22:41:54.294Z,98675.41
2023-03-28T22:44:56.955Z,98679.47
2023-03-28T22:48:00.713Z,98686.97
2023-03-28T22:51:03.673Z,98670.50
2023-03-28T22:54:06.591Z,98676.19
2023-03-28T22:57:09.555Z,98680.88
2023-03-28T23:00:13.601Z,98687.81
2023-03-28T23:03:17.471Z,98680.41
2023-03-28T23:06:20.597Z,98685.16
2023-03-28T23:09:27.722Z,98692.25
2023-03-28T23:12:30.879Z,98696.97
2023-03-28T23:15:33.495Z,98701.38
2023-03-28T23:18:36.712Z,98698.66
2023-03-28T23:21:39.444Z,98700.47
2023-03-28T23:24:42.180Z,98701.47
2023-03-28T23:27:45.278Z,98703.28
2023-03-28T23:30:47.950Z,98703.94
2023-03-28T23:33:50.855Z,98691.06
2023-03-28T23:36:57.382Z,98696.91
2023-03-28T23:40:00.170Z,98703.19
2023-03-28T23:43:02.744Z,98699.19
2023-03-28T23:46:05.845Z,98689.78
2023-03-28T23:49:10.691Z,98691.13
2023-03-28T23:52:13.869Z,98681.41
2023-03-28T23:55:16.858Z,98677.31
2023-03-28T23:58:19.940Z,98683.31
